sensor_id;sensor_type;location;lat;lon;timestamp;temperature;humidity
59556;DHT22;45374;52.746;6.304;2023-04-06T00:01:20;1.90;99.90
59556;DHT22;45374;52.746;6.304;2023-04-06T00:03:45;1.90;99.90
59556;DHT22;45374;52.746;6.304;2023-04-06T00:06:11;1.90;99.90
59556;DHT22;45374;52.746;6.304;2023-04-06T00:08:37;1.90;99.90
59556;DHT22;45374;52.746;6.304;2023-04-06T00:11:02;1.90;99.90
59556;DHT22;45374;52.746;6.304;2023-04-06T00:13:28;1.90;99.90
59556;DHT22;45374;52.746;6.304;2023-04-06T00:15:53;1.90;99.90
59556;DHT22;45374;52.746;6.304;2023-04-06T00:18:19;1.80;99.90
59556;DHT22;45374;52.746;6.304;2023-04-06T00:20:44;1.80;99.90
59556;DHT22;45374;52.746;6.304;2023-04-06T00:23:10;1.70;99.90
59556;DHT22;45374;52.746;6.304;2023-04-06T00:25:36;1.80;99.90
59556;DHT22;45374;52.746;6.304;2023-04-06T00:28:01;1.70;99.90
59556;DHT22;45374;52.746;6.304;2023-04-06T00:30:27;1.70;99.90
59556;DHT22;45374;52.746;6.304;2023-04-06T00:32:52;1.70;99.90
59556;DHT22;45374;52.746;6.304;2023-04-06T00:35:18;1.60;99.90
59556;DHT22;45374;52.746;6.304;2023-04-06T00:37:46;1.60;99.90
59556;DHT22;45374;52.746;6.304;2023-04-06T00:40:12;1.50;99.90
59556;DHT22;45374;52.746;6.304;2023-04-06T00:42:37;1.50;99.90
59556;DHT22;45374;52.746;6.304;2023-04-06T00:45:03;1.50;99.90
59556;DHT22;45374;52.746;6.304;2023-04-06T00:47:28;1.50;99.90
59556;DHT22;45374;52.746;6.304;2023-04-06T00:49:54;1.50;99.90
59556;DHT22;45374;52.746;6.304;2023-04-06T00:52:20;1.50;99.90
59556;DHT22;45374;52.746;6.304;2023-04-06T00:54:46;1.40;99.90
59556;DHT22;45374;52.746;6.304;2023-04-06T00:57:12;1.30;99.90
59556;DHT22;45374;52.746;6.304;2023-04-06T00:59:39;1.30;99.90
59556;DHT22;45374;52.746;6.304;2023-04-06T01:02:06;1.30;99.90
59556;DHT22;45374;52.746;6.304;2023-04-06T01:04:32;1.40;99.90
59556;DHT22;45374;52.746;6.304;2023-04-06T01:06:58;1.30;99.90
59556;DHT22;45374;52.746;6.304;2023-04-06T01:09:23;1.30;99.90
59556;DHT22;45374;52.746;6.304;2023-04-06T01:11:49;1.30;99.90
59556;DHT22;45374;52.746;6.304;2023-04-06T01:14:15;1.30;99.90
59556;DHT22;45374;52.746;6.304;2023-04-06T01:16:41;1.30;99.90
59556;DHT22;45374;52.746;6.304;2023-04-06T01:19:13;1.20;99.90
59556;DHT22;45374;52.746;6.304;2023-04-06T01:21:40;1.30;99.90
59556;DHT22;45374;52.746;6.304;2023-04-06T01:24:08;1.30;99.90
59556;DHT22;45374;52.746;6.304;2023-04-06T01:26:35;1.30;99.90
59556;DHT22;45374;52.746;6.304;2023-04-06T01:29:01;1.20;99.90
59556;DHT22;45374;52.746;6.304;2023-04-06T01:31:27;1.20;99.90
59556;DHT22;45374;52.746;6.304;2023-04-06T01:33:54;1.20;99.90
59556;DHT22;45374;52.746;6.304;2023-04-06T01:36:20;1.10;99.90
59556;DHT22;45374;52.746;6.304;2023-04-06T01:38:45;1.10;99.90
59556;DHT22;45374;52.746;6.304;2023-04-06T01:41:11;1.10;99.90
59556;DHT22;45374;52.746;6.304;2023-04-06T01:43:36;1.10;99.90
59556;DHT22;45374;52.746;6.304;2023-04-06T01:46:02;1.00;99.90
59556;DHT22;45374;52.746;6.304;2023-04-06T01:48:28;1.00;99.90
59556;DHT22;45374;52.746;6.304;2023-04-06T01:50:54;1.00;99.90
59556;DHT22;45374;52.746;6.304;2023-04-06T01:53:20;1.00;99.90
59556;DHT22;45374;52.746;6.304;2023-04-06T01:55:46;1.00;99.90
59556;DHT22;45374;52.746;6.304;2023-04-06T01:58:11;1.00;99.90
59556;DHT22;45374;52.746;6.304;2023-04-06T02:00:37;1.00;99.90
59556;DHT22;45374;52.746;6.304;2023-04-06T02:03:03;1.00;99.90
59556;DHT22;45374;52.746;6.304;2023-04-06T02:05:30;1.00;99.90
59556;DHT22;45374;52.746;6.304;2023-04-06T02:07:56;1.00;99.90
59556;DHT22;45374;52.746;6.304;2023-04-06T02:10:22;1.00;99.90
59556;DHT22;45374;52.746;6.304;2023-04-06T02:12:48;1.00;99.90
59556;DHT22;45374;52.746;6.304;2023-04-06T02:15:14;0.90;99.90
59556;DHT22;45374;52.746;6.304;2023-04-06T02:17:40;1.00;99.90
59556;DHT22;45374;52.746;6.304;2023-04-06T02:20:06;0.90;99.90
59556;DHT22;45374;52.746;6.304;2023-04-06T02:22:33;0.90;99.90
59556;DHT22;45374;52.746;6.304;2023-04-06T02:24:58;0.90;99.90
59556;DHT22;45374;52.746;6.304;2023-04-06T02:27:24;0.90;99.90
59556;DHT22;45374;52.746;6.304;2023-04-06T02:29:49;0.90;99.90
59556;DHT22;45374;52.746;6.304;2023-04-06T02:32:15;0.90;99.90
59556;DHT22;45374;52.746;6.304;2023-04-06T02:34:40;0.90;99.90
59556;DHT22;45374;52.746;6.304;2023-04-06T02:37:06;0.80;99.90
59556;DHT22;45374;52.746;6.304;2023-04-06T02:39:32;0.80;99.90
59556;DHT22;45374;52.746;6.304;2023-04-06T02:41:57;0.90;99.90
59556;DHT22;45374;52.746;6.304;2023-04-06T02:44:23;0.80;99.90
59556;DHT22;45374;52.746;6.304;2023-04-06T02:46:48;0.80;99.90
59556;DHT22;45374;52.746;6.304;2023-04-06T02:49:14;0.80;99.90
59556;DHT22;45374;52.746;6.304;2023-04-06T02:51:39;0.80;99.90
59556;DHT22;45374;52.746;6.304;2023-04-06T02:54:05;0.80;99.90
59556;DHT22;45374;52.746;6.304;2023-04-06T02:56:31;0.70;99.90
59556;DHT22;45374;52.746;6.304;2023-04-06T02:58:56;0.70;99.90
59556;DHT22;45374;52.746;6.304;2023-04-06T03:01:22;0.70;99.90
59556;DHT22;45374;52.746;6.304;2023-04-06T03:03:47;0.70;99.90
59556;DHT22;45374;52.746;6.304;2023-04-06T03:06:13;0.60;99.90
59556;DHT22;45374;52.746;6.304;2023-04-06T03:08:38;0.70;99.90
59556;DHT22;45374;52.746;6.304;2023-04-06T03:11:04;0.60;99.90
59556;DHT22;45374;52.746;6.304;2023-04-06T03:13:30;0.60;99.90
59556;DHT22;45374;52.746;6.304;2023-04-06T03:15:55;0.60;99.90
59556;DHT22;45374;52.746;6.304;2023-04-06T03:18:23;0.60;99.90
59556;DHT22;45374;52.746;6.304;2023-04-06T03:20:48;0.70;99.90
59556;DHT22;45374;52.746;6.304;2023-04-06T03:23:14;0.70;99.90
59556;DHT22;45374;52.746;6.304;2023-04-06T03:25:41;0.60;99.90
59556;DHT22;45374;52.746;6.304;2023-04-06T03:28:06;0.60;99.90
59556;DHT22;45374;52.746;6.304;2023-04-06T03:30:33;0.60;99.90
59556;DHT22;45374;52.746;6.304;2023-04-06T03:32:59;0.60;99.90
59556;DHT22;45374;52.746;6.304;2023-04-06T03:35:25;0.60;99.90
59556;DHT22;45374;52.746;6.304;2023-04-06T03:37:51;0.60;99.90
59556;DHT22;45374;52.746;6.304;2023-04-06T03:40:16;0.60;99.90
59556;DHT22;45374;52.746;6.304;2023-04-06T03:42:42;0.60;99.90
59556;DHT22;45374;52.746;6.304;2023-04-06T03:45:08;0.50;99.90
59556;DHT22;45374;52.746;6.304;2023-04-06T03:47:33;0.50;99.90
59556;DHT22;45374;52.746;6.304;2023-04-06T03:49:59;0.50;99.90
59556;DHT22;45374;52.746;6.304;2023-04-06T03:52:25;0.50;99.90
59556;DHT22;45374;52.746;6.304;2023-04-06T03:54:50;0.40;99.90
59556;DHT22;45374;52.746;6.304;2023-04-06T03:57:16;0.40;99.90
59556;DHT22;45374;52.746;6.304;2023-04-06T03:59:41;0.40;99.90
59556;DHT22;45374;52.746;6.304;2023-04-06T04:02:07;0.30;99.90
59556;DHT22;45374;52.746;6.304;2023-04-06T04:04:32;0.30;99.90
59556;DHT22;45374;52.746;6.304;2023-04-06T04:06:58;0.30;99.90
59556;DHT22;45374;52.746;6.304;2023-04-06T04:09:23;0.30;99.90
59556;DHT22;45374;52.746;6.304;2023-04-06T04:11:49;0.30;99.90
59556;DHT22;45374;52.746;6.304;2023-04-06T04:14:14;0.30;99.90
59556;DHT22;45374;52.746;6.304;2023-04-06T04:16:40;0.20;99.90
59556;DHT22;45374;52.746;6.304;2023-04-06T04:19:07;0.30;99.90
59556;DHT22;45374;52.746;6.304;2023-04-06T04:21:32;0.30;99.90
59556;DHT22;45374;52.746;6.304;2023-04-06T04:23:58;0.30;99.90
59556;DHT22;45374;52.746;6.304;2023-04-06T04:26:23;0.30;99.90
59556;DHT22;45374;52.746;6.304;2023-04-06T04:28:49;0.30;99.90
59556;DHT22;45374;52.746;6.304;2023-04-06T04:31:14;0.30;99.90
59556;DHT22;45374;52.746;6.304;2023-04-06T04:33:42;0.30;99.90
59556;DHT22;45374;52.746;6.304;2023-04-06T04:36:08;0.30;99.90
59556;DHT22;45374;52.746;6.304;2023-04-06T04:38:34;0.30;99.90
59556;DHT22;45374;52.746;6.304;2023-04-06T04:40:59;0.30;99.90
59556;DHT22;45374;52.746;6.304;2023-04-06T04:43:25;0.30;99.90
59556;DHT22;45374;52.746;6.304;2023-04-06T04:45:50;0.30;99.90
59556;DHT22;45374;52.746;6.304;2023-04-06T04:48:18;0.30;99.90
59556;DHT22;45374;52.746;6.304;2023-04-06T04:50:44;0.30;99.90
59556;DHT22;45374;52.746;6.304;2023-04-06T04:53:09;0.20;99.90
59556;DHT22;45374;52.746;6.304;2023-04-06T04:55:35;0.20;99.90
59556;DHT22;45374;52.746;6.304;2023-04-06T04:58:00;0.20;99.90
59556;DHT22;45374;52.746;6.304;2023-04-06T05:00:27;0.20;99.90
59556;DHT22;45374;52.746;6.304;2023-04-06T05:02:53;0.20;99.90
59556;DHT22;45374;52.746;6.304;2023-04-06T05:05:18;0.20;99.90
59556;DHT22;45374;52.746;6.304;2023-04-06T05:07:44;0.20;99.90
59556;DHT22;45374;52.746;6.304;2023-04-06T05:10:09;0.20;99.90
59556;DHT22;45374;52.746;6.304;2023-04-06T05:12:35;0.20;99.90
59556;DHT22;45374;52.746;6.304;2023-04-06T05:15:01;0.20;99.90
59556;DHT22;45374;52.746;6.304;2023-04-06T05:17:26;0.20;99.90
59556;DHT22;45374;52.746;6.304;2023-04-06T05:19:52;0.30;99.90
59556;DHT22;45374;52.746;6.304;2023-04-06T05:22:17;0.30;99.90
59556;DHT22;45374;52.746;6.304;2023-04-06T05:24:43;0.30;99.90
59556;DHT22;45374;52.746;6.304;2023-04-06T05:27:09;0.30;99.90
59556;DHT22;45374;52.746;6.304;2023-04-06T05:29:35;0.40;99.90
59556;DHT22;45374;52.746;6.304;2023-04-06T05:32:01;0.40;99.90
59556;DHT22;45374;52.746;6.304;2023-04-06T05:34:26;0.40;99.90
59556;DHT22;45374;52.746;6.304;2023-04-06T05:36:52;0.40;99.90
59556;DHT22;45374;52.746;6.304;2023-04-06T05:39:18;0.40;99.90
59556;DHT22;45374;52.746;6.304;2023-04-06T05:41:43;0.50;99.90
59556;DHT22;45374;52.746;6.304;2023-04-06T05:44:09;0.50;99.90
59556;DHT22;45374;52.746;6.304;2023-04-06T05:46:34;0.60;99.90
59556;DHT22;45374;52.746;6.304;2023-04-06T05:49:00;0.70;99.90
59556;DHT22;45374;52.746;6.304;2023-04-06T05:51:25;0.70;99.90
59556;DHT22;45374;52.746;6.304;2023-04-06T05:53:52;0.80;99.90
59556;DHT22;45374;52.746;6.304;2023-04-06T05:56:18;0.80;99.90
59556;DHT22;45374;52.746;6.304;2023-04-06T05:58:44;0.90;99.90
59556;DHT22;45374;52.746;6.304;2023-04-06T06:01:09;1.00;99.90
59556;DHT22;45374;52.746;6.304;2023-04-06T06:03:35;1.00;99.90
59556;DHT22;45374;52.746;6.304;2023-04-06T06:06:02;1.00;99.90
59556;DHT22;45374;52.746;6.304;2023-04-06T06:08:28;1.10;99.90
59556;DHT22;45374;52.746;6.304;2023-04-06T06:10:54;1.20;99.90
59556;DHT22;45374;52.746;6.304;2023-04-06T06:13:20;1.20;99.90
59556;DHT22;45374;52.746;6.304;2023-04-06T06:15:46;1.30;99.90
59556;DHT22;45374;52.746;6.304;2023-04-06T06:18:12;1.30;99.90
59556;DHT22;45374;52.746;6.304;2023-04-06T06:20:37;1.40;99.90
59556;DHT22;45374;52.746;6.304;2023-04-06T06:23:03;1.50;99.90
59556;DHT22;45374;52.746;6.304;2023-04-06T06:25:28;1.50;99.90
59556;DHT22;45374;52.746;6.304;2023-04-06T06:27:56;1.60;99.90
59556;DHT22;45374;52.746;6.304;2023-04-06T06:30:21;1.70;99.90
59556;DHT22;45374;52.746;6.304;2023-04-06T06:32:47;1.80;99.90
59556;DHT22;45374;52.746;6.304;2023-04-06T06:35:13;1.80;99.90
59556;DHT22;45374;52.746;6.304;2023-04-06T06:37:38;1.90;99.90
59556;DHT22;45374;52.746;6.304;2023-04-06T06:40:04;2.10;99.90
59556;DHT22;45374;52.746;6.304;2023-04-06T06:42:30;2.10;99.90
59556;DHT22;45374;52.746;6.304;2023-04-06T06:44:55;2.30;99.90
59556;DHT22;45374;52.746;6.304;2023-04-06T06:47:21;2.40;99.90
59556;DHT22;45374;52.746;6.304;2023-04-06T06:49:46;2.50;99.90
59556;DHT22;45374;52.746;6.304;2023-04-06T06:52:12;2.60;99.90
59556;DHT22;45374;52.746;6.304;2023-04-06T06:54:37;2.70;99.90
59556;DHT22;45374;52.746;6.304;2023-04-06T06:57:03;2.90;99.90
59556;DHT22;45374;52.746;6.304;2023-04-06T06:59:28;3.00;99.90
59556;DHT22;45374;52.746;6.304;2023-04-06T07:01:54;3.10;99.90
59556;DHT22;45374;52.746;6.304;2023-04-06T07:04:19;3.30;99.90
59556;DHT22;45374;52.746;6.304;2023-04-06T07:06:45;3.50;99.90
59556;DHT22;45374;52.746;6.304;2023-04-06T07:09:11;3.60;99.90
59556;DHT22;45374;52.746;6.304;2023-04-06T07:11:36;3.80;99.90
59556;DHT22;45374;52.746;6.304;2023-04-06T07:14:02;3.90;99.90
59556;DHT22;45374;52.746;6.304;2023-04-06T07:16:27;4.10;99.90
59556;DHT22;45374;52.746;6.304;2023-04-06T07:18:53;4.30;99.90
59556;DHT22;45374;52.746;6.304;2023-04-06T07:21:18;4.50;99.90
59556;DHT22;45374;52.746;6.304;2023-04-06T07:23:44;4.70;99.90
59556;DHT22;45374;52.746;6.304;2023-04-06T07:26:10;4.80;99.90
59556;DHT22;45374;52.746;6.304;2023-04-06T07:28:35;5.00;99.90
59556;DHT22;45374;52.746;6.304;2023-04-06T07:31:02;5.20;99.90
59556;DHT22;45374;52.746;6.304;2023-04-06T07:33:28;5.40;99.90
59556;DHT22;45374;52.746;6.304;2023-04-06T07:35:55;5.60;99.90
59556;DHT22;45374;52.746;6.304;2023-04-06T07:38:22;5.70;99.90
59556;DHT22;45374;52.746;6.304;2023-04-06T07:40:47;5.90;99.90
59556;DHT22;45374;52.746;6.304;2023-04-06T07:43:13;6.10;99.90
59556;DHT22;45374;52.746;6.304;2023-04-06T07:45:38;6.30;99.90
59556;DHT22;45374;52.746;6.304;2023-04-06T07:48:04;6.40;99.90
59556;DHT22;45374;52.746;6.304;2023-04-06T07:50:29;6.60;99.90
59556;DHT22;45374;52.746;6.304;2023-04-06T07:52:55;6.80;99.90
59556;DHT22;45374;52.746;6.304;2023-04-06T07:55:21;7.10;99.90
59556;DHT22;45374;52.746;6.304;2023-04-06T07:57:46;7.30;99.90
59556;DHT22;45374;52.746;6.304;2023-04-06T08:00:12;7.40;99.90
59556;DHT22;45374;52.746;6.304;2023-04-06T08:02:38;7.50;99.90
59556;DHT22;45374;52.746;6.304;2023-04-06T08:05:04;7.70;99.90
59556;DHT22;45374;52.746;6.304;2023-04-06T08:07:29;7.80;99.90
59556;DHT22;45374;52.746;6.304;2023-04-06T08:09:55;7.90;99.90
59556;DHT22;45374;52.746;6.304;2023-04-06T08:12:21;8.00;99.90
59556;DHT22;45374;52.746;6.304;2023-04-06T08:14:47;8.10;99.90
59556;DHT22;45374;52.746;6.304;2023-04-06T08:17:12;8.20;99.90
59556;DHT22;45374;52.746;6.304;2023-04-06T08:19:38;8.40;99.90
59556;DHT22;45374;52.746;6.304;2023-04-06T08:22:03;8.60;99.90
59556;DHT22;45374;52.746;6.304;2023-04-06T08:24:29;8.70;99.90
59556;DHT22;45374;52.746;6.304;2023-04-06T08:26:56;8.90;99.90
59556;DHT22;45374;52.746;6.304;2023-04-06T08:29:21;9.00;99.90
59556;DHT22;45374;52.746;6.304;2023-04-06T08:31:47;9.20;99.90
59556;DHT22;45374;52.746;6.304;2023-04-06T08:34:12;9.30;99.90
59556;DHT22;45374;52.746;6.304;2023-04-06T08:36:38;9.40;99.90
59556;DHT22;45374;52.746;6.304;2023-04-06T08:39:03;9.60;99.90
59556;DHT22;45374;52.746;6.304;2023-04-06T08:41:29;9.60;99.90
59556;DHT22;45374;52.746;6.304;2023-04-06T08:43:58;9.70;99.90
59556;DHT22;45374;52.746;6.304;2023-04-06T08:46:25;9.70;99.90
59556;DHT22;45374;52.746;6.304;2023-04-06T08:49:00;9.80;99.90
59556;DHT22;45374;52.746;6.304;2023-04-06T08:51:27;9.80;99.90
59556;DHT22;45374;52.746;6.304;2023-04-06T08:53:54;9.80;99.90
59556;DHT22;45374;52.746;6.304;2023-04-06T08:56:22;9.90;99.90
59556;DHT22;45374;52.746;6.304;2023-04-06T08:58:47;10.00;99.90
59556;DHT22;45374;52.746;6.304;2023-04-06T09:01:14;10.10;99.90
59556;DHT22;45374;52.746;6.304;2023-04-06T09:03:42;10.30;99.90
59556;DHT22;45374;52.746;6.304;2023-04-06T09:06:08;10.50;99.90
59556;DHT22;45374;52.746;6.304;2023-04-06T09:08:35;10.70;99.90
59556;DHT22;45374;52.746;6.304;2023-04-06T09:11:04;10.90;99.90
59556;DHT22;45374;52.746;6.304;2023-04-06T09:13:30;11.00;99.90
59556;DHT22;45374;52.746;6.304;2023-04-06T09:16:03;11.10;99.90
59556;DHT22;45374;52.746;6.304;2023-04-06T09:18:30;11.20;99.90
59556;DHT22;45374;52.746;6.304;2023-04-06T09:20:58;11.40;99.90
59556;DHT22;45374;52.746;6.304;2023-04-06T09:23:23;11.50;99.90
59556;DHT22;45374;52.746;6.304;2023-04-06T09:25:49;11.60;99.90
59556;DHT22;45374;52.746;6.304;2023-04-06T09:28:14;11.60;99.90
59556;DHT22;45374;52.746;6.304;2023-04-06T09:30:48;11.60;99.90
59556;DHT22;45374;52.746;6.304;2023-04-06T09:33:22;11.70;99.90
59556;DHT22;45374;52.746;6.304;2023-04-06T09:35:51;11.80;99.90
59556;DHT22;45374;52.746;6.304;2023-04-06T09:38:16;11.80;99.90
59556;DHT22;45374;52.746;6.304;2023-04-06T09:40:50;11.80;99.90
59556;DHT22;45374;52.746;6.304;2023-04-06T09:43:26;11.90;99.90
59556;DHT22;45374;52.746;6.304;2023-04-06T09:45:53;11.80;99.90
59556;DHT22;45374;52.746;6.304;2023-04-06T09:48:20;11.70;99.90
59556;DHT22;45374;52.746;6.304;2023-04-06T09:50:47;11.70;99.90
59556;DHT22;45374;52.746;6.304;2023-04-06T09:53:14;11.70;99.90
59556;DHT22;45374;52.746;6.304;2023-04-06T09:55:42;11.70;99.90
59556;DHT22;45374;52.746;6.304;2023-04-06T09:58:13;11.70;99.90
59556;DHT22;45374;52.746;6.304;2023-04-06T10:01:01;11.70;99.90
59556;DHT22;45374;52.746;6.304;2023-04-06T10:06:23;12.10;99.90
59556;DHT22;45374;52.746;6.304;2023-04-06T10:08:50;12.20;99.90
59556;DHT22;45374;52.746;6.304;2023-04-06T10:11:17;12.30;99.90
59556;DHT22;45374;52.746;6.304;2023-04-06T10:13:44;12.30;99.90
59556;DHT22;45374;52.746;6.304;2023-04-06T10:16:12;12.30;99.90
59556;DHT22;45374;52.746;6.304;2023-04-06T10:18:39;12.40;99.90
59556;DHT22;45374;52.746;6.304;2023-04-06T10:21:11;12.30;99.90
59556;DHT22;45374;52.746;6.304;2023-04-06T10:23:45;12.40;99.90
59556;DHT22;45374;52.746;6.304;2023-04-06T10:26:16;12.50;99.90
59556;DHT22;45374;52.746;6.304;2023-04-06T10:28:43;12.60;99.90
59556;DHT22;45374;52.746;6.304;2023-04-06T10:31:10;12.70;99.90
59556;DHT22;45374;52.746;6.304;2023-04-06T10:33:36;12.80;99.90
59556;DHT22;45374;52.746;6.304;2023-04-06T10:36:11;13.00;99.90
59556;DHT22;45374;52.746;6.304;2023-04-06T10:38:38;13.10;99.90
59556;DHT22;45374;52.746;6.304;2023-04-06T10:41:05;13.20;99.90
59556;DHT22;45374;52.746;6.304;2023-04-06T10:43:34;13.40;99.90
59556;DHT22;45374;52.746;6.304;2023-04-06T10:46:03;13.40;99.90
59556;DHT22;45374;52.746;6.304;2023-04-06T10:48:43;13.50;99.90
59556;DHT22;45374;52.746;6.304;2023-04-06T10:51:14;13.50;99.90
59556;DHT22;45374;52.746;6.304;2023-04-06T10:53:42;13.60;99.90
59556;DHT22;45374;52.746;6.304;2023-04-06T10:56:14;13.70;99.90
59556;DHT22;45374;52.746;6.304;2023-04-06T10:58:49;13.80;99.90
59556;DHT22;45374;52.746;6.304;2023-04-06T11:01:16;13.80;99.90
59556;DHT22;45374;52.746;6.304;2023-04-06T11:03:44;13.90;99.90
59556;DHT22;45374;52.746;6.304;2023-04-06T11:06:10;14.00;99.90
59556;DHT22;45374;52.746;6.304;2023-04-06T11:08:36;14.00;99.90
59556;DHT22;45374;52.746;6.304;2023-04-06T11:11:14;14.10;99.90
59556;DHT22;45374;52.746;6.304;2023-04-06T11:13:50;14.10;99.90
59556;DHT22;45374;52.746;6.304;2023-04-06T11:16:20;14.20;99.90
59556;DHT22;45374;52.746;6.304;2023-04-06T11:18:54;14.20;99.90
59556;DHT22;45374;52.746;6.304;2023-04-06T11:21:33;14.40;99.90
59556;DHT22;45374;52.746;6.304;2023-04-06T11:24:24;14.60;99.90
59556;DHT22;45374;52.746;6.304;2023-04-06T11:26:52;14.70;99.90
59556;DHT22;45374;52.746;6.304;2023-04-06T11:29:23;14.80;99.90
59556;DHT22;45374;52.746;6.304;2023-04-06T11:31:50;14.90;99.90
59556;DHT22;45374;52.746;6.304;2023-04-06T11:34:21;14.90;99.90
59556;DHT22;45374;52.746;6.304;2023-04-06T11:36:49;14.90;99.90
59556;DHT22;45374;52.746;6.304;2023-04-06T11:39:20;14.80;99.90
59556;DHT22;45374;52.746;6.304;2023-04-06T11:41:50;14.70;99.90
59556;DHT22;45374;52.746;6.304;2023-04-06T11:47:03;14.50;99.90
59556;DHT22;45374;52.746;6.304;2023-04-06T11:49:30;14.50;99.90
59556;DHT22;45374;52.746;6.304;2023-04-06T11:51:56;14.50;99.90
59556;DHT22;45374;52.746;6.304;2023-04-06T11:54:37;14.60;99.90
59556;DHT22;45374;52.746;6.304;2023-04-06T11:57:04;14.50;99.90
59556;DHT22;45374;52.746;6.304;2023-04-06T11:59:31;14.50;99.90
59556;DHT22;45374;52.746;6.304;2023-04-06T12:01:57;14.60;99.90
59556;DHT22;45374;52.746;6.304;2023-04-06T12:04:23;14.50;99.90
59556;DHT22;45374;52.746;6.304;2023-04-06T12:06:48;14.40;99.90
59556;DHT22;45374;52.746;6.304;2023-04-06T12:09:14;14.40;99.90
59556;DHT22;45374;52.746;6.304;2023-04-06T12:11:39;14.30;99.90
59556;DHT22;45374;52.746;6.304;2023-04-06T12:14:06;14.20;99.90
59556;DHT22;45374;52.746;6.304;2023-04-06T12:16:33;14.20;99.90
59556;DHT22;45374;52.746;6.304;2023-04-06T12:18:59;14.20;99.90
59556;DHT22;45374;52.746;6.304;2023-04-06T12:21:27;14.10;99.90
59556;DHT22;45374;52.746;6.304;2023-04-06T12:23:53;14.10;99.90
59556;DHT22;45374;52.746;6.304;2023-04-06T12:26:19;14.10;99.90
59556;DHT22;45374;52.746;6.304;2023-04-06T12:28:44;13.80;99.90
59556;DHT22;45374;52.746;6.304;2023-04-06T12:31:17;13.70;99.90
59556;DHT22;45374;52.746;6.304;2023-04-06T12:33:46;13.10;99.90
59556;DHT22;45374;52.746;6.304;2023-04-06T12:36:13;13.10;99.90
59556;DHT22;45374;52.746;6.304;2023-04-06T12:38:39;13.00;99.90
59556;DHT22;45374;52.746;6.304;2023-04-06T12:41:06;12.80;99.90
59556;DHT22;45374;52.746;6.304;2023-04-06T12:43:31;12.80;99.90
59556;DHT22;45374;52.746;6.304;2023-04-06T12:45:57;12.80;99.90
59556;DHT22;45374;52.746;6.304;2023-04-06T12:48:23;12.90;99.90
59556;DHT22;45374;52.746;6.304;2023-04-06T12:50:57;12.90;99.90
59556;DHT22;45374;52.746;6.304;2023-04-06T12:53:23;12.80;99.90
59556;DHT22;45374;52.746;6.304;2023-04-06T12:55:48;12.80;99.90
59556;DHT22;45374;52.746;6.304;2023-04-06T12:58:14;12.80;99.90
59556;DHT22;45374;52.746;6.304;2023-04-06T13:00:40;12.60;99.90
59556;DHT22;45374;52.746;6.304;2023-04-06T13:03:06;12.60;99.90
59556;DHT22;45374;52.746;6.304;2023-04-06T13:05:32;12.10;99.90
59556;DHT22;45374;52.746;6.304;2023-04-06T13:07:57;12.10;99.90
59556;DHT22;45374;52.746;6.304;2023-04-06T13:10:23;12.10;99.90
59556;DHT22;45374;52.746;6.304;2023-04-06T13:12:48;12.10;99.90
59556;DHT22;45374;52.746;6.304;2023-04-06T13:15:14;12.20;99.90
59556;DHT22;45374;52.746;6.304;2023-04-06T13:17:40;12.20;99.90
59556;DHT22;45374;52.746;6.304;2023-04-06T13:20:06;12.30;99.90
59556;DHT22;45374;52.746;6.304;2023-04-06T13:22:32;12.30;99.90
59556;DHT22;45374;52.746;6.304;2023-04-06T13:24:57;12.30;99.90
59556;DHT22;45374;52.746;6.304;2023-04-06T13:27:23;12.30;99.90
59556;DHT22;45374;52.746;6.304;2023-04-06T13:29:48;12.30;99.90
59556;DHT22;45374;52.746;6.304;2023-04-06T13:32:14;12.20;99.90
59556;DHT22;45374;52.746;6.304;2023-04-06T13:34:39;12.20;99.90
59556;DHT22;45374;52.746;6.304;2023-04-06T13:37:12;12.20;99.90
59556;DHT22;45374;52.746;6.304;2023-04-06T13:39:38;12.20;99.90
59556;DHT22;45374;52.746;6.304;2023-04-06T13:42:04;12.10;99.90
59556;DHT22;45374;52.746;6.304;2023-04-06T13:44:29;12.10;99.90
59556;DHT22;45374;52.746;6.304;2023-04-06T13:46:56;12.00;99.90
59556;DHT22;45374;52.746;6.304;2023-04-06T13:49:22;11.90;99.90
59556;DHT22;45374;52.746;6.304;2023-04-06T13:51:47;11.80;99.90
59556;DHT22;45374;52.746;6.304;2023-04-06T13:54:13;11.80;99.90
59556;DHT22;45374;52.746;6.304;2023-04-06T13:56:38;11.70;99.90
59556;DHT22;45374;52.746;6.304;2023-04-06T13:59:04;11.70;99.90
59556;DHT22;45374;52.746;6.304;2023-04-06T14:01:30;11.60;99.90
59556;DHT22;45374;52.746;6.304;2023-04-06T14:03:55;11.50;99.90
59556;DHT22;45374;52.746;6.304;2023-04-06T14:06:21;11.50;99.90
59556;DHT22;45374;52.746;6.304;2023-04-06T14:08:46;11.30;99.90
59556;DHT22;45374;52.746;6.304;2023-04-06T14:11:12;11.30;99.90
59556;DHT22;45374;52.746;6.304;2023-04-06T14:13:40;11.20;99.90
59556;DHT22;45374;52.746;6.304;2023-04-06T14:16:07;11.10;99.90
59556;DHT22;45374;52.746;6.304;2023-04-06T14:18:33;11.00;99.90
59556;DHT22;45374;52.746;6.304;2023-04-06T14:20:59;10.90;99.90
59556;DHT22;45374;52.746;6.304;2023-04-06T14:23:29;10.80;99.90
59556;DHT22;45374;52.746;6.304;2023-04-06T14:26:05;10.80;99.90
59556;DHT22;45374;52.746;6.304;2023-04-06T14:28:32;10.80;99.90
59556;DHT22;45374;52.746;6.304;2023-04-06T14:31:09;10.80;99.90
59556;DHT22;45374;52.746;6.304;2023-04-06T14:33:34;10.70;99.90
59556;DHT22;45374;52.746;6.304;2023-04-06T14:36:03;10.70;99.90
59556;DHT22;45374;52.746;6.304;2023-04-06T14:38:28;10.60;99.90
59556;DHT22;45374;52.746;6.304;2023-04-06T14:40:54;10.60;99.90
59556;DHT22;45374;52.746;6.304;2023-04-06T14:43:21;10.60;99.90
59556;DHT22;45374;52.746;6.304;2023-04-06T14:45:47;10.50;99.90
59556;DHT22;45374;52.746;6.304;2023-04-06T14:48:12;10.40;99.90
59556;DHT22;45374;52.746;6.304;2023-04-06T14:50:41;10.30;99.90
59556;DHT22;45374;52.746;6.304;2023-04-06T14:53:11;10.30;99.90
59556;DHT22;45374;52.746;6.304;2023-04-06T14:55:40;10.20;99.90
59556;DHT22;45374;52.746;6.304;2023-04-06T14:58:06;10.20;99.90
59556;DHT22;45374;52.746;6.304;2023-04-06T15:00:32;10.20;99.90
59556;DHT22;45374;52.746;6.304;2023-04-06T15:02:57;10.20;99.90
59556;DHT22;45374;52.746;6.304;2023-04-06T15:05:23;10.10;99.90
59556;DHT22;45374;52.746;6.304;2023-04-06T15:07:49;10.10;99.90
59556;DHT22;45374;52.746;6.304;2023-04-06T15:10:14;10.00;99.90
59556;DHT22;45374;52.746;6.304;2023-04-06T15:12:40;9.90;99.90
59556;DHT22;45374;52.746;6.304;2023-04-06T15:15:06;9.90;99.90
59556;DHT22;45374;52.746;6.304;2023-04-06T15:17:31;9.90;99.90
59556;DHT22;45374;52.746;6.304;2023-04-06T15:19:57;9.80;99.90
59556;DHT22;45374;52.746;6.304;2023-04-06T15:22:22;9.80;99.90
59556;DHT22;45374;52.746;6.304;2023-04-06T15:24:48;9.70;99.90
59556;DHT22;45374;52.746;6.304;2023-04-06T15:27:13;9.70;99.90
59556;DHT22;45374;52.746;6.304;2023-04-06T15:29:39;9.70;99.90
59556;DHT22;45374;52.746;6.304;2023-04-06T15:32:05;9.60;99.90
59556;DHT22;45374;52.746;6.304;2023-04-06T15:34:31;9.60;99.90
59556;DHT22;45374;52.746;6.304;2023-04-06T15:37:01;9.60;99.90
59556;DHT22;45374;52.746;6.304;2023-04-06T15:39:26;9.60;99.90
59556;DHT22;45374;52.746;6.304;2023-04-06T15:41:53;9.50;99.90